sensor_id;sensor_type;location;lat;lon;timestamp;temperature;humidity
71627;DHT22;59475;52.464;13.590;2023-07-24T00:01:54;18.29;82.42
71627;DHT22;59475;52.464;13.590;2023-07-24T00:04:19;18.31;81.83
71627;DHT22;59475;52.464;13.590;2023-07-24T00:06:45;18.33;81.49
71627;DHT22;59475;52.464;13.590;2023-07-24T00:09:10;18.38;81.22
71627;DHT22;59475;52.464;13.590;2023-07-24T00:11:35;18.40;80.08
71627;DHT22;59475;52.464;13.590;2023-07-24T00:14:01;18.43;80.14
71627;DHT22;59475;52.464;13.590;2023-07-24T00:16:26;18.48;79.45
71627;DHT22;59475;52.464;13.590;2023-07-24T00:18:51;18.52;78.87
71627;DHT22;59475;52.464;13.590;2023-07-24T00:21:17;18.57;79.79
71627;DHT22;59475;52.464;13.590;2023-07-24T00:23:42;18.54;79.32
71627;DHT22;59475;52.464;13.590;2023-07-24T00:26:07;18.54;80.13
71627;DHT22;59475;52.464;13.590;2023-07-24T00:28:33;18.48;80.22
71627;DHT22;59475;52.464;13.590;2023-07-24T00:30:58;18.45;80.99
71627;DHT22;59475;52.464;13.590;2023-07-24T00:33:24;18.41;81.82
71627;DHT22;59475;52.464;13.590;2023-07-24T00:35:49;18.40;81.86
71627;DHT22;59475;52.464;13.590;2023-07-24T00:38:14;18.36;82.06
71627;DHT22;59475;52.464;13.590;2023-07-24T00:40:40;18.31;82.33
71627;DHT22;59475;52.464;13.590;2023-07-24T00:43:05;18.27;82.70
71627;DHT22;59475;52.464;13.590;2023-07-24T00:45:31;18.23;81.56
71627;DHT22;59475;52.464;13.590;2023-07-24T00:47:57;18.22;81.60
71627;DHT22;59475;52.464;13.590;2023-07-24T00:50:24;18.22;79.39
71627;DHT22;59475;52.464;13.590;2023-07-24T00:52:50;18.20;80.79
71627;DHT22;59475;52.464;13.590;2023-07-24T00:55:15;18.18;80.55
71627;DHT22;59475;52.464;13.590;2023-07-24T00:57:42;18.24;81.34
71627;DHT22;59475;52.464;13.590;2023-07-24T01:00:07;18.31;79.11
71627;DHT22;59475;52.464;13.590;2023-07-24T01:02:35;18.24;80.55
71627;DHT22;59475;52.464;13.590;2023-07-24T01:05:01;18.22;80.71
71627;DHT22;59475;52.464;13.590;2023-07-24T01:07:27;18.13;80.52
71627;DHT22;59475;52.464;13.590;2023-07-24T01:09:52;18.09;80.67
71627;DHT22;59475;52.464;13.590;2023-07-24T01:12:31;18.07;80.45
71627;DHT22;59475;52.464;13.590;2023-07-24T01:15:12;18.04;80.19
71627;DHT22;59475;52.464;13.590;2023-07-24T01:17:45;17.99;80.42
71627;DHT22;59475;52.464;13.590;2023-07-24T01:20:15;17.96;79.96
71627;DHT22;59475;52.464;13.590;2023-07-24T01:23:01;17.89;80.66
71627;DHT22;59475;52.464;13.590;2023-07-24T01:25:33;17.82;80.54
71627;DHT22;59475;52.464;13.590;2023-07-24T01:28:08;17.78;80.28
71627;DHT22;59475;52.464;13.590;2023-07-24T01:30:34;17.72;80.30
71627;DHT22;59475;52.464;13.590;2023-07-24T01:32:59;17.72;79.63
71627;DHT22;59475;52.464;13.590;2023-07-24T01:35:26;17.71;79.84
71627;DHT22;59475;52.464;13.590;2023-07-24T01:37:54;17.74;79.83
71627;DHT22;59475;52.464;13.590;2023-07-24T01:40:21;17.74;79.38
71627;DHT22;59475;52.464;13.590;2023-07-24T01:42:47;17.76;78.88
71627;DHT22;59475;52.464;13.590;2023-07-24T01:45:12;17.85;78.24
71627;DHT22;59475;52.464;13.590;2023-07-24T01:47:38;17.87;77.85
71627;DHT22;59475;52.464;13.590;2023-07-24T01:50:03;17.89;78.03
71627;DHT22;59475;52.464;13.590;2023-07-24T01:52:29;17.89;78.38
71627;DHT22;59475;52.464;13.590;2023-07-24T01:54:54;17.90;78.15
71627;DHT22;59475;52.464;13.590;2023-07-24T01:57:19;17.97;78.21
71627;DHT22;59475;52.464;13.590;2023-07-24T01:59:45;18.03;77.20
71627;DHT22;59475;52.464;13.590;2023-07-24T02:02:10;18.14;76.58
71627;DHT22;59475;52.464;13.590;2023-07-24T02:04:36;18.24;76.13
71627;DHT22;59475;52.464;13.590;2023-07-24T02:07:01;18.31;75.84
71627;DHT22;59475;52.464;13.590;2023-07-24T02:09:26;18.41;75.94
71627;DHT22;59475;52.464;13.590;2023-07-24T02:11:52;18.50;75.66
71627;DHT22;59475;52.464;13.590;2023-07-24T02:14:18;18.55;75.66
71627;DHT22;59475;52.464;13.590;2023-07-24T02:16:43;18.62;75.63
71627;DHT22;59475;52.464;13.590;2023-07-24T02:19:09;18.71;75.43
71627;DHT22;59475;52.464;13.590;2023-07-24T02:21:34;18.76;75.25
71627;DHT22;59475;52.464;13.590;2023-07-24T02:24:00;18.82;75.35
71627;DHT22;59475;52.464;13.590;2023-07-24T02:26:25;18.89;75.19
71627;DHT22;59475;52.464;13.590;2023-07-24T02:28:50;18.96;75.37
71627;DHT22;59475;52.464;13.590;2023-07-24T02:31:16;19.00;75.12
71627;DHT22;59475;52.464;13.590;2023-07-24T02:33:41;19.03;75.09
71627;DHT22;59475;52.464;13.590;2023-07-24T02:36:07;19.12;75.07
71627;DHT22;59475;52.464;13.590;2023-07-24T02:38:32;19.22;74.61
71627;DHT22;59475;52.464;13.590;2023-07-24T02:40:58;19.24;74.54
71627;DHT22;59475;52.464;13.590;2023-07-24T02:43:23;19.30;74.71
71627;DHT22;59475;52.464;13.590;2023-07-24T02:45:48;19.33;74.57
71627;DHT22;59475;52.464;13.590;2023-07-24T02:48:14;19.34;74.70
71627;DHT22;59475;52.464;13.590;2023-07-24T02:50:39;19.36;74.88
71627;DHT22;59475;52.464;13.590;2023-07-24T02:53:05;19.34;74.91
71627;DHT22;59475;52.464;13.590;2023-07-24T02:55:30;19.34;75.04
71627;DHT22;59475;52.464;13.590;2023-07-24T02:57:56;19.37;75.10
71627;DHT22;59475;52.464;13.590;2023-07-24T03:00:21;19.40;75.02
71627;DHT22;59475;52.464;13.590;2023-07-24T03:02:47;19.43;74.79
71627;DHT22;59475;52.464;13.590;2023-07-24T03:05:12;19.46;75.04
71627;DHT22;59475;52.464;13.590;2023-07-24T03:07:37;19.44;75.47
71627;DHT22;59475;52.464;13.590;2023-07-24T03:10:03;19.40;75.62
71627;DHT22;59475;52.464;13.590;2023-07-24T03:12:29;19.38;75.85
71627;DHT22;59475;52.464;13.590;2023-07-24T03:14:54;19.36;75.98
71627;DHT22;59475;52.464;13.590;2023-07-24T03:17:19;19.37;75.96
71627;DHT22;59475;52.464;13.590;2023-07-24T03:19:45;19.41;75.97
71627;DHT22;59475;52.464;13.590;2023-07-24T03:22:10;19.44;76.02
71627;DHT22;59475;52.464;13.590;2023-07-24T03:24:36;19.46;76.17
71627;DHT22;59475;52.464;13.590;2023-07-24T03:27:01;19.55;75.96
71627;DHT22;59475;52.464;13.590;2023-07-24T03:29:27;19.57;75.84
71627;DHT22;59475;52.464;13.590;2023-07-24T03:31:52;19.60;75.86
71627;DHT22;59475;52.464;13.590;2023-07-24T03:34:18;19.64;75.85
71627;DHT22;59475;52.464;13.590;2023-07-24T03:36:43;19.63;76.12
71627;DHT22;59475;52.464;13.590;2023-07-24T03:39:10;19.55;76.56
71627;DHT22;59475;52.464;13.590;2023-07-24T03:41:35;19.54;77.11
71627;DHT22;59475;52.464;13.590;2023-07-24T03:44:00;19.50;77.63
71627;DHT22;59475;52.464;13.590;2023-07-24T03:46:26;19.46;77.79
71627;DHT22;59475;52.464;13.590;2023-07-24T03:48:52;19.47;77.85
71627;DHT22;59475;52.464;13.590;2023-07-24T03:51:18;19.50;77.91
71627;DHT22;59475;52.464;13.590;2023-07-24T03:53:43;19.57;77.84
71627;DHT22;59475;52.464;13.590;2023-07-24T03:56:08;19.61;77.92
71627;DHT22;59475;52.464;13.590;2023-07-24T03:58:34;19.65;77.95
71627;DHT22;59475;52.464;13.590;2023-07-24T04:00:59;19.68;77.89
71627;DHT22;59475;52.464;13.590;2023-07-24T04:03:24;19.71;77.81
71627;DHT22;59475;52.464;13.590;2023-07-24T04:05:50;19.74;77.87
71627;DHT22;59475;52.464;13.590;2023-07-24T04:08:15;19.78;77.71
71627;DHT22;59475;52.464;13.590;2023-07-24T04:10:41;19.77;77.67
71627;DHT22;59475;52.464;13.590;2023-07-24T04:13:06;19.78;77.93
71627;DHT22;59475;52.464;13.590;2023-07-24T04:15:31;19.77;77.98
71627;DHT22;59475;52.464;13.590;2023-07-24T04:17:57;19.75;78.05
71627;DHT22;59475;52.464;13.590;2023-07-24T04:20:22;19.75;78.49
71627;DHT22;59475;52.464;13.590;2023-07-24T04:22:47;19.81;78.21
71627;DHT22;59475;52.464;13.590;2023-07-24T04:25:13;19.83;78.27
71627;DHT22;59475;52.464;13.590;2023-07-24T04:27:38;19.85;78.36
71627;DHT22;59475;52.464;13.590;2023-07-24T04:30:04;19.89;78.22
71627;DHT22;59475;52.464;13.590;2023-07-24T04:32:29;19.93;77.74
71627;DHT22;59475;52.464;13.590;2023-07-24T04:34:55;20.00;77.86
71627;DHT22;59475;52.464;13.590;2023-07-24T04:37:20;20.00;77.98
71627;DHT22;59475;52.464;13.590;2023-07-24T04:39:45;20.08;77.87
71627;DHT22;59475;52.464;13.590;2023-07-24T04:42:11;20.10;77.99
71627;DHT22;59475;52.464;13.590;2023-07-24T04:44:36;20.19;77.56
71627;DHT22;59475;52.464;13.590;2023-07-24T04:47:02;20.27;78.25
71627;DHT22;59475;52.464;13.590;2023-07-24T04:49:30;20.36;77.25
71627;DHT22;59475;52.464;13.590;2023-07-24T04:51:58;20.39;77.15
71627;DHT22;59475;52.464;13.590;2023-07-24T04:54:23;20.43;76.78
71627;DHT22;59475;52.464;13.590;2023-07-24T04:56:48;20.43;77.01
71627;DHT22;59475;52.464;13.590;2023-07-24T04:59:14;20.51;77.05
71627;DHT22;59475;52.464;13.590;2023-07-24T05:01:39;20.51;76.87
71627;DHT22;59475;52.464;13.590;2023-07-24T05:04:05;20.56;77.11
71627;DHT22;59475;52.464;13.590;2023-07-24T05:06:30;20.67;76.63
71627;DHT22;59475;52.464;13.590;2023-07-24T05:08:55;20.75;76.34
71627;DHT22;59475;52.464;13.590;2023-07-24T05:11:21;20.83;76.25
71627;DHT22;59475;52.464;13.590;2023-07-24T05:13:46;20.90;76.24
71627;DHT22;59475;52.464;13.590;2023-07-24T05:16:11;20.92;76.13
71627;DHT22;59475;52.464;13.590;2023-07-24T05:18:37;20.99;75.65
71627;DHT22;59475;52.464;13.590;2023-07-24T05:21:02;21.11;75.78
71627;DHT22;59475;52.464;13.590;2023-07-24T05:23:27;21.15;75.44
71627;DHT22;59475;52.464;13.590;2023-07-24T05:26:00;21.26;75.68
71627;DHT22;59475;52.464;13.590;2023-07-24T05:28:30;21.38;75.14
71627;DHT22;59475;52.464;13.590;2023-07-24T05:30:59;21.36;74.75
71627;DHT22;59475;52.464;13.590;2023-07-24T05:33:25;21.43;74.87
71627;DHT22;59475;52.464;13.590;2023-07-24T05:35:50;21.50;74.37
71627;DHT22;59475;52.464;13.590;2023-07-24T05:38:15;21.63;73.50
71627;DHT22;59475;52.464;13.590;2023-07-24T05:40:41;21.67;74.21
71627;DHT22;59475;52.464;13.590;2023-07-24T05:43:06;21.64;74.02
71627;DHT22;59475;52.464;13.590;2023-07-24T05:45:31;21.64;74.52
71627;DHT22;59475;52.464;13.590;2023-07-24T05:47:57;21.68;74.57
71627;DHT22;59475;52.464;13.590;2023-07-24T05:50:22;21.77;74.18
71627;DHT22;59475;52.464;13.590;2023-07-24T05:52:47;21.85;73.43
71627;DHT22;59475;52.464;13.590;2023-07-24T05:55:13;22.02;72.75
71627;DHT22;59475;52.464;13.590;2023-07-24T05:57:38;22.12;72.75
71627;DHT22;59475;52.464;13.590;2023-07-24T06:00:04;22.22;72.48
71627;DHT22;59475;52.464;13.590;2023-07-24T06:02:30;22.25;72.17
71627;DHT22;59475;52.464;13.590;2023-07-24T06:04:55;22.31;71.89
71627;DHT22;59475;52.464;13.590;2023-07-24T06:07:21;22.35;71.56
71627;DHT22;59475;52.464;13.590;2023-07-24T06:09:46;22.49;70.74
71627;DHT22;59475;52.464;13.590;2023-07-24T06:12:12;22.59;70.48
71627;DHT22;59475;52.464;13.590;2023-07-24T06:14:37;22.71;70.44
71627;DHT22;59475;52.464;13.590;2023-07-24T06:17:02;22.80;70.14
71627;DHT22;59475;52.464;13.590;2023-07-24T06:19:28;22.80;68.82
71627;DHT22;59475;52.464;13.590;2023-07-24T06:21:53;23.10;69.42
71627;DHT22;59475;52.464;13.590;2023-07-24T06:24:19;23.15;67.77
71627;DHT22;59475;52.464;13.590;2023-07-24T06:26:44;23.21;67.57
71627;DHT22;59475;52.464;13.590;2023-07-24T06:29:10;23.15;67.23
71627;DHT22;59475;52.464;13.590;2023-07-24T06:31:35;23.35;66.63
71627;DHT22;59475;52.464;13.590;2023-07-24T06:34:01;23.49;65.74
71627;DHT22;59475;52.464;13.590;2023-07-24T06:36:27;23.74;65.70
71627;DHT22;59475;52.464;13.590;2023-07-24T06:38:52;23.83;65.45
71627;DHT22;59475;52.464;13.590;2023-07-24T06:41:17;23.97;64.92
71627;DHT22;59475;52.464;13.590;2023-07-24T06:43:45;24.10;63.09
71627;DHT22;59475;52.464;13.590;2023-07-24T06:46:10;24.14;62.57
71627;DHT22;59475;52.464;13.590;2023-07-24T06:48:35;24.22;62.71
71627;DHT22;59475;52.464;13.590;2023-07-24T06:51:01;24.54;61.70
71627;DHT22;59475;52.464;13.590;2023-07-24T06:53:26;24.71;61.08
71627;DHT22;59475;52.464;13.590;2023-07-24T06:55:51;24.80;61.53
71627;DHT22;59475;52.464;13.590;2023-07-24T06:58:17;24.71;60.82
71627;DHT22;59475;52.464;13.590;2023-07-24T07:00:42;24.86;60.28
71627;DHT22;59475;52.464;13.590;2023-07-24T07:03:08;25.30;59.76
71627;DHT22;59475;52.464;13.590;2023-07-24T07:05:34;25.33;58.32
71627;DHT22;59475;52.464;13.590;2023-07-24T07:08:00;25.65;58.20
71627;DHT22;59475;52.464;13.590;2023-07-24T07:10:25;25.45;57.37
71627;DHT22;59475;52.464;13.590;2023-07-24T07:12:50;25.79;58.43
71627;DHT22;59475;52.464;13.590;2023-07-24T07:15:16;26.23;56.05
71627;DHT22;59475;52.464;13.590;2023-07-24T07:17:41;26.37;55.35
71627;DHT22;59475;52.464;13.590;2023-07-24T07:20:07;26.39;55.20
71627;DHT22;59475;52.464;13.590;2023-07-24T07:22:32;26.79;54.46
71627;DHT22;59475;52.464;13.590;2023-07-24T07:24:58;26.99;53.72
71627;DHT22;59475;52.464;13.590;2023-07-24T07:27:23;26.69;54.50
71627;DHT22;59475;52.464;13.590;2023-07-24T07:29:49;27.12;53.52
71627;DHT22;59475;52.464;13.590;2023-07-24T07:32:14;27.60;52.82
71627;DHT22;59475;52.464;13.590;2023-07-24T07:34:39;27.34;51.23
71627;DHT22;59475;52.464;13.590;2023-07-24T07:37:06;27.33;53.08
71627;DHT22;59475;52.464;13.590;2023-07-24T07:39:31;27.10;52.83
71627;DHT22;59475;52.464;13.590;2023-07-24T07:41:57;27.24;52.69
71627;DHT22;59475;52.464;13.590;2023-07-24T07:44:23;27.42;52.04
71627;DHT22;59475;52.464;13.590;2023-07-24T07:46:48;27.51;52.42
71627;DHT22;59475;52.464;13.590;2023-07-24T07:49:13;27.49;52.25
71627;DHT22;59475;52.464;13.590;2023-07-24T07:51:39;27.44;52.55
71627;DHT22;59475;52.464;13.590;2023-07-24T07:54:04;27.12;52.73
71627;DHT22;59475;52.464;13.590;2023-07-24T07:56:29;27.32;52.78
71627;DHT22;59475;52.464;13.590;2023-07-24T07:58:55;27.44;53.09
71627;DHT22;59475;52.464;13.590;2023-07-24T08:01:20;27.36;50.66
71627;DHT22;59475;52.464;13.590;2023-07-24T08:03:46;27.39;51.84
71627;DHT22;59475;52.464;13.590;2023-07-24T08:06:11;27.34;52.20
71627;DHT22;59475;52.464;13.590;2023-07-24T08:08:37;26.96;52.60
71627;DHT22;59475;52.464;13.590;2023-07-24T08:11:06;26.91;53.61
71627;DHT22;59475;52.464;13.590;2023-07-24T08:13:32;27.05;52.04
71627;DHT22;59475;52.464;13.590;2023-07-24T08:15:58;26.95;52.27
71627;DHT22;59475;52.464;13.590;2023-07-24T08:18:25;27.03;52.24
71627;DHT22;59475;52.464;13.590;2023-07-24T08:20:50;26.98;52.82
71627;DHT22;59475;52.464;13.590;2023-07-24T08:23:17;26.58;53.05
71627;DHT22;59475;52.464;13.590;2023-07-24T08:25:53;26.44;53.79
71627;DHT22;59475;52.464;13.590;2023-07-24T08:28:18;26.78;54.03
71627;DHT22;59475;52.464;13.590;2023-07-24T08:30:43;27.29;52.91
71627;DHT22;59475;52.464;13.590;2023-07-24T08:33:09;27.64;51.68
71627;DHT22;59475;52.464;13.590;2023-07-24T08:35:34;27.85;50.52
71627;DHT22;59475;52.464;13.590;2023-07-24T08:38:00;27.92;51.18
71627;DHT22;59475;52.464;13.590;2023-07-24T08:40:25;27.74;52.09
71627;DHT22;59475;52.464;13.590;2023-07-24T08:42:51;27.40;52.03
71627;DHT22;59475;52.464;13.590;2023-07-24T08:45:17;27.03;53.60
71627;DHT22;59475;52.464;13.590;2023-07-24T08:47:43;26.78;54.06
71627;DHT22;59475;52.464;13.590;2023-07-24T08:50:09;26.92;54.63
71627;DHT22;59475;52.464;13.590;2023-07-24T08:52:37;26.86;53.71
71627;DHT22;59475;52.464;13.590;2023-07-24T08:55:05;26.77;54.47
71627;DHT22;59475;52.464;13.590;2023-07-24T08:57:30;26.58;55.57
71627;DHT22;59475;52.464;13.590;2023-07-24T08:59:55;26.67;54.90
71627;DHT22;59475;52.464;13.590;2023-07-24T09:02:21;26.92;55.65
71627;DHT22;59475;52.464;13.590;2023-07-24T09:04:46;26.99;54.66
71627;DHT22;59475;52.464;13.590;2023-07-24T09:07:12;26.64;55.16
71627;DHT22;59475;52.464;13.590;2023-07-24T09:09:39;26.94;55.06
71627;DHT22;59475;52.464;13.590;2023-07-24T09:12:05;27.43;54.18
71627;DHT22;59475;52.464;13.590;2023-07-24T09:14:30;28.13;53.36
71627;DHT22;59475;52.464;13.590;2023-07-24T09:17:06;28.29;51.13
71627;DHT22;59475;52.464;13.590;2023-07-24T09:19:32;28.45;51.04
71627;DHT22;59475;52.464;13.590;2023-07-24T09:22:13;28.94;50.32
71627;DHT22;59475;52.464;13.590;2023-07-24T09:24:55;28.73;50.31
71627;DHT22;59475;52.464;13.590;2023-07-24T09:27:24;28.26;50.69
71627;DHT22;59475;52.464;13.590;2023-07-24T09:29:51;28.05;51.94
71627;DHT22;59475;52.464;13.590;2023-07-24T09:32:21;28.06;51.32
71627;DHT22;59475;52.464;13.590;2023-07-24T09:34:49;27.97;51.03
71627;DHT22;59475;52.464;13.590;2023-07-24T09:37:33;28.19;51.42
71627;DHT22;59475;52.464;13.590;2023-07-24T09:39:58;28.13;51.05
71627;DHT22;59475;52.464;13.590;2023-07-24T09:42:29;27.82;52.39
71627;DHT22;59475;52.464;13.590;2023-07-24T09:44:54;27.82;52.32
71627;DHT22;59475;52.464;13.590;2023-07-24T09:47:20;28.12;52.88
71627;DHT22;59475;52.464;13.590;2023-07-24T09:49:45;27.99;50.59
71627;DHT22;59475;52.464;13.590;2023-07-24T09:52:12;27.76;51.64
71627;DHT22;59475;52.464;13.590;2023-07-24T09:54:47;28.20;51.98
71627;DHT22;59475;52.464;13.590;2023-07-24T09:57:14;28.02;50.60
71627;DHT22;59475;52.464;13.590;2023-07-24T09:59:40;28.02;51.21
71627;DHT22;59475;52.464;13.590;2023-07-24T10:02:10;28.09;50.49
71627;DHT22;59475;52.464;13.590;2023-07-24T10:04:36;28.54;50.32
71627;DHT22;59475;52.464;13.590;2023-07-24T10:07:04;29.29;47.97
71627;DHT22;59475;52.464;13.590;2023-07-24T10:09:29;29.83;46.98
71627;DHT22;59475;52.464;13.590;2023-07-24T10:11:56;29.72;46.90
71627;DHT22;59475;52.464;13.590;2023-07-24T10:14:22;29.74;46.27
71627;DHT22;59475;52.464;13.590;2023-07-24T10:16:47;29.93;46.35
71627;DHT22;59475;52.464;13.590;2023-07-24T10:19:15;29.72;47.09
71627;DHT22;59475;52.464;13.590;2023-07-24T10:21:47;29.35;47.08
71627;DHT22;59475;52.464;13.590;2023-07-24T10:24:15;28.71;48.13
71627;DHT22;59475;52.464;13.590;2023-07-24T10:26:40;28.98;48.25
71627;DHT22;59475;52.464;13.590;2023-07-24T10:29:05;28.90;47.19
71627;DHT22;59475;52.464;13.590;2023-07-24T10:31:31;29.21;47.19
71627;DHT22;59475;52.464;13.590;2023-07-24T10:34:04;29.49;47.00
71627;DHT22;59475;52.464;13.590;2023-07-24T10:36:36;29.66;45.60
71627;DHT22;59475;52.464;13.590;2023-07-24T10:39:02;29.65;44.86
71627;DHT22;59475;52.464;13.590;2023-07-24T10:41:35;29.73;45.28
71627;DHT22;59475;52.464;13.590;2023-07-24T10:44:01;29.57;45.02
71627;DHT22;59475;52.464;13.590;2023-07-24T10:46:38;29.59;45.15
71627;DHT22;59475;52.464;13.590;2023-07-24T10:49:03;29.39;45.63
71627;DHT22;59475;52.464;13.590;2023-07-24T10:51:30;29.50;45.81
71627;DHT22;59475;52.464;13.590;2023-07-24T10:53:59;29.45;46.60
71627;DHT22;59475;52.464;13.590;2023-07-24T10:56:24;29.70;44.93
71627;DHT22;59475;52.464;13.590;2023-07-24T10:58:50;29.76;45.80
71627;DHT22;59475;52.464;13.590;2023-07-24T11:01:17;29.96;45.33
71627;DHT22;59475;52.464;13.590;2023-07-24T11:03:42;30.04;46.66
71627;DHT22;59475;52.464;13.590;2023-07-24T11:06:17;30.10;43.30
71627;DHT22;59475;52.464;13.590;2023-07-24T11:08:51;30.22;44.26
71627;DHT22;59475;52.464;13.590;2023-07-24T11:11:17;30.65;42.76
71627;DHT22;59475;52.464;13.590;2023-07-24T11:13:43;30.96;43.27
71627;DHT22;59475;52.464;13.590;2023-07-24T11:16:08;31.03;42.85
71627;DHT22;59475;52.464;13.590;2023-07-24T11:18:44;31.24;42.07
71627;DHT22;59475;52.464;13.590;2023-07-24T11:21:11;31.30;41.67
71627;DHT22;59475;52.464;13.590;2023-07-24T11:23:37;31.30;41.69
71627;DHT22;59475;52.464;13.590;2023-07-24T11:26:05;30.75;41.75
71627;DHT22;59475;52.464;13.590;2023-07-24T11:28:39;30.22;42.08
71627;DHT22;59475;52.464;13.590;2023-07-24T11:31:05;29.84;43.75
71627;DHT22;59475;52.464;13.590;2023-07-24T11:33:30;29.88;42.27
71627;DHT22;59475;52.464;13.590;2023-07-24T11:35:56;29.97;43.37
71627;DHT22;59475;52.464;13.590;2023-07-24T11:38:22;29.98;42.77
71627;DHT22;59475;52.464;13.590;2023-07-24T11:40:47;29.81;43.01
71627;DHT22;59475;52.464;13.590;2023-07-24T11:43:21;29.49;43.32
71627;DHT22;59475;52.464;13.590;2023-07-24T11:45:48;29.35;43.32
71627;DHT22;59475;52.464;13.590;2023-07-24T11:48:17;29.40;43.58
71627;DHT22;59475;52.464;13.590;2023-07-24T11:50:56;29.78;43.10
71627;DHT22;59475;52.464;13.590;2023-07-24T11:53:29;30.42;42.55
71627;DHT22;59475;52.464;13.590;2023-07-24T11:55:57;31.13;41.48
71627;DHT22;59475;52.464;13.590;2023-07-24T11:58:25;31.68;40.59
